Delta Virtual Airport Information Service

Vancouver International Airport

ICAO: CYVR Country: Canada
Latitude: 49.1939 Longitude: -123.184
Latest Arrival : ACA7063 (CYYC-CYVR) Latest Departure : WJA4868352 (CYVR-CYYC)


WX CaptureLIVE
Data provided by noaa.gov | Fetched at 00:53:42

METAR : CYVR 120500Z 24002KT 20SM FEW160 SCT180 BKN210 13/10 A3013 RMK AC1AS2CS2 SLP203

TAF : CYVR 120238Z 1203/1306 26008KT P6SM FEW040 SCT120 BKN220 TEMPO 1206/1209 FEW040 BKN120 FM120900 30008KT P6SM SCT040 BKN080 TEMPO 1209/1215 6SM -RA BR SCT020 BKN040 FM121500 27008KT P6SM SCT015 OVC030 TEMPO 1215/1220 5SM -RA BR BKN015 FM122200 25008KT P6SM FEW030 SCT050 RMK NXT FCST BY 120600Z


Runway Data for CYVR
Data provided by openaviationdata.com

Runway ID Mag Var Hdg Length Elevation Surface ILS Freq ILS Id ILS Slope
08L 19 81° 9918 ft 14 ft Concrete 110.55 ITL 3
08R 19 80° 11962 ft 14 ft Asphalt 109.5 IVR 3
12 19 122° 7290 ft 14 ft Asphalt 111.1 IMK 3
26L 19 260° 11962 ft 14 ft Asphalt 110.7 IFZ 3
26R 19 261° 9918 ft 14 ft Concrete 111.95 IRD 3
30 19 302° 7290 ft 14 ft Asphalt -- -- --

Vancouver International Airport, Canada
Use only for reference purposes



Not for navigational purposes.